Time;durP1;ratioP1;P1;durP2;ratioP2;P2;SDS_P1;SDS_P2;PMS_P1;PMS_P2;Temp;Humidity;BMP_temperature;BMP_pressure;BME280_temperature;BME280_humidity;BME280_pressure;Samples;Min_cycle;Max_cycle;Signal;HPM_P1;HPM_P2
2023/07/09 00:01:52;;;;;;;12.50;5.70;;;;;;;;;;101267;299;22886;-34
2023/07/09 00:04:18;;;;;;;8.40;5.70;;;;;;;;;;101144;299;24078;-29
2023/07/09 00:06:43;;;;;;;7.00;5.50;;;;;;;;;;101378;299;24236;-35
2023/07/09 00:09:12;;;;;;;8.60;6.10;;;;;;;;;;101211;288;23129;-35
2023/07/09 00:11:37;;;;;;;9.30;6.30;;;;;;;;;;101450;299;24270;-30
2023/07/09 00:14:04;;;;;;;11.80;7.20;;;;;;;;;;101377;299;24149;-36
2023/07/09 00:16:31;;;;;;;13.00;6.50;;;;;;;;;;101353;299;24337;-33
2023/07/09 00:18:56;;;;;;;7.00;4.90;;;;;;;;;;101350;299;22577;-30
2023/07/09 00:21:22;;;;;;;12.80;7.90;;;;;;;;;;101179;300;24211;-32
2023/07/09 00:23:50;;;;;;;11.20;6.80;;;;;;;;;;101232;299;24071;-33
2023/07/09 00:26:16;;;;;;;10.90;7.00;;;;;;;;;;101282;287;22618;-33
2023/07/09 00:28:42;;;;;;;12.10;6.40;;;;;;;;;;101399;287;24120;-34
2023/07/09 00:31:13;;;;;;;7.20;4.80;;;;;;;;;;101199;287;24137;-34
2023/07/09 00:33:39;;;;;;;5.90;4.60;;;;;;;;;;101339;287;22709;-35
2023/07/09 00:36:07;;;;;;;23.50;10.90;;;;;;;;;;101320;287;22614;-29
2023/07/09 01:17:23;;;;;;;7.40;5.70;;;;;;;-99.97;16.35;19953.32;98365;295;1544049;-35
2023/07/09 01:19:50;;;;;;;17.10;6.20;;;;;;;-128.00;-1.00;-1.00;97558;295;1003160;-37
2023/07/09 01:22:20;;;;;;;8.60;6.10;;;;;;;-128.00;-1.00;-1.00;98060;295;1004151;-35
2023/07/09 01:24:49;;;;;;;10.00;5.60;;;;;;;-128.00;-1.00;-1.00;97828;296;1004132;-35
2023/07/09 01:27:16;;;;;;;10.40;6.50;;;;;;;-128.00;-1.00;-1.00;97905;296;1003760;-31
2023/07/09 01:29:42;;;;;;;8.90;5.80;;;;;;;-128.00;-1.00;-1.00;97810;296;1003595;-31
2023/07/09 01:32:07;;;;;;;12.20;5.90;;;;;;;-128.00;-1.00;-1.00;97823;297;1003329;-30
2023/07/09 01:34:33;;;;;;;15.00;5.30;;;;;;;-128.00;-1.00;-1.00;97878;296;1002988;-33
2023/07/09 01:36:59;;;;;;;7.80;6.40;;;;;;;-128.00;-1.00;-1.00;97957;296;1003145;-34
2023/07/09 01:39:31;;;;;;;7.70;5.70;;;;;;;-128.00;-1.00;-1.00;97858;296;1004173;-31
2023/07/09 01:41:56;;;;;;;8.90;6.10;;;;;;;-128.00;-1.00;-1.00;97808;296;1004332;-31
2023/07/09 01:44:23;;;;;;;12.80;5.30;;;;;;;-128.00;-1.00;-1.00;97831;284;1003095;-34
2023/07/09 01:46:48;;;;;;;8.40;5.60;;;;;;;-128.00;-1.00;-1.00;97827;296;1003968;-30
2023/07/09 01:49:14;;;;;;;5.20;4.70;;;;;;;-128.00;-1.00;-1.00;97820;296;1002967;-34
2023/07/09 01:51:40;;;;;;;7.10;4.80;;;;;;;-128.00;-1.00;-1.00;98001;293;1004167;-34
2023/07/09 01:54:06;;;;;;;5.90;5.30;;;;;;;-128.00;-1.00;-1.00;97848;296;1003748;-30
2023/07/09 01:56:31;;;;;;;6.50;5.30;;;;;;;-128.00;-1.00;-1.00;97869;296;1003148;-34
2023/07/09 01:59:01;;;;;;;11.20;5.60;;;;;;;-128.00;-1.00;-1.00;97863;296;1003340;-31
2023/07/09 02:01:33;;;;;;;10.50;6.60;;;;;;;-128.00;-1.00;-1.00;97781;284;1003646;-30
2023/07/09 02:03:59;;;;;;;8.40;6.10;;;;;;;-128.00;-1.00;-1.00;97828;296;1002683;-29
2023/07/09 02:06:24;;;;;;;7.10;6.30;;;;;;;-128.00;-1.00;-1.00;97791;296;1003496;-30
2023/07/09 02:08:51;;;;;;;6.20;5.30;;;;;;;-128.00;-1.00;-1.00;97875;296;1003569;-35
2023/07/09 02:11:17;;;;;;;6.70;5.50;;;;;;;-128.00;-1.00;-1.00;97869;296;1002769;-34
2023/07/09 02:13:42;;;;;;;6.30;5.40;;;;;;;-128.00;-1.00;-1.00;97781;296;1003135;-29
2023/07/09 02:16:08;;;;;;;5.80;4.50;;;;;;;-128.00;-1.00;-1.00;97763;296;1004108;-34
2023/07/09 02:18:34;;;;;;;5.00;4.40;;;;;;;-128.00;-1.00;-1.00;98001;296;1004141;-35
2023/07/09 02:20:59;;;;;;;6.50;5.00;;;;;;;-128.00;-1.00;-1.00;97986;296;1004292;-35
2023/07/09 02:23:28;;;;;;;3.80;2.90;;;;;;;-128.00;-1.00;-1.00;97891;296;1003730;-34
2023/07/09 02:25:54;;;;;;;8.10;4.90;;;;;;;-128.00;-1.00;-1.00;97874;285;1002610;-36
2023/07/09 02:28:19;;;;;;;6.90;5.40;;;;;;;-128.00;-1.00;-1.00;97879;297;1003513;-34
2023/07/09 02:30:45;;;;;;;6.10;5.50;;;;;;;-128.00;-1.00;-1.00;97852;296;1003511;-32
2023/07/09 02:33:11;;;;;;;6.00;4.90;;;;;;;-128.00;-1.00;-1.00;97764;296;1003249;-34
2023/07/09 02:35:36;;;;;;;7.10;4.00;;;;;;;-128.00;-1.00;-1.00;97818;285;1003199;-36
2023/07/09 02:38:03;;;;;;;7.30;5.60;;;;;;;-128.00;-1.00;-1.00;97814;285;1003308;-36
2023/07/09 02:40:28;;;;;;;18.70;5.60;;;;;;;-128.00;-1.00;-1.00;97943;285;1003451;-31
2023/07/09 02:42:54;;;;;;;6.70;5.40;;;;;;;-128.00;-1.00;-1.00;97844;296;1004269;-30
2023/07/09 02:45:20;;;;;;;4.80;4.30;;;;;;;-128.00;-1.00;-1.00;97802;285;1003175;-36
2023/07/09 02:47:45;;;;;;;5.40;4.50;;;;;;;-128.00;-1.00;-1.00;97874;296;1003523;-36
2023/07/09 02:50:11;;;;;;;4.40;3.90;;;;;;;-128.00;-1.00;-1.00;97869;285;1004376;-29
2023/07/09 02:52:37;;;;;;;4.40;3.70;;;;;;;-128.00;-1.00;-1.00;97815;285;1003127;-34
2023/07/09 02:55:03;;;;;;;3.10;2.60;;;;;;;-128.00;-1.00;-1.00;97833;285;1003130;-33
2023/07/09 02:57:29;;;;;;;6.00;4.00;;;;;;;-128.00;-1.00;-1.00;97769;285;1004800;-31
2023/07/09 02:59:54;;;;;;;4.50;4.00;;;;;;;-128.00;-1.00;-1.00;97823;285;1002972;-30
2023/07/09 03:02:20;;;;;;;3.40;2.90;;;;;;;-128.00;-1.00;-1.00;97817;285;1003398;-34
2023/07/09 03:04:45;;;;;;;3.40;3.00;;;;;;;-128.00;-1.00;-1.00;97980;285;1004593;-31
2023/07/09 03:07:11;;;;;;;6.00;5.10;;;;;;;-128.00;-1.00;-1.00;97924;285;1003345;-31
2023/07/09 03:09:37;;;;;;;8.50;6.60;;;;;;;-128.00;-1.00;-1.00;97796;285;1003963;-33
2023/07/09 03:12:03;;;;;;;5.90;5.40;;;;;;;-128.00;-1.00;-1.00;97900;285;1003013;-29
2023/07/09 03:14:29;;;;;;;5.20;4.70;;;;;;;-128.00;-1.00;-1.00;97871;285;1003297;-29
2023/07/09 03:16:55;;;;;;;5.20;4.50;;;;;;;-128.00;-1.00;-1.00;97976;296;1003130;-34
2023/07/09 03:19:22;;;;;;;6.50;5.60;;;;;;;-128.00;-1.00;-1.00;97869;296;1003578;-31
2023/07/09 03:21:47;;;;;;;5.20;4.70;;;;;;;-128.00;-1.00;-1.00;97890;285;1003126;-34
2023/07/09 03:24:18;;;;;;;4.10;3.50;;;;;;;-128.00;-1.00;-1.00;97851;285;1004018;-33
2023/07/09 03:26:45;;;;;;;18.60;5.80;;;;;;;-128.00;-1.00;-1.00;97797;284;1003797;-31
2023/07/09 03:29:11;;;;;;;6.60;5.70;;;;;;;-128.00;-1.00;-1.00;97886;296;1003341;-31
2023/07/09 03:31:37;;;;;;;5.20;4.60;;;;;;;-128.00;-1.00;-1.00;97868;296;1003693;-30
2023/07/09 03:34:02;;;;;;;9.30;5.00;;;;;;;-128.00;-1.00;-1.00;97970;296;1003180;-40
2023/07/09 03:36:28;;;;;;;4.60;3.90;;;;;;;-128.00;-1.00;-1.00;97898;296;1005342;-34
2023/07/09 03:38:54;;;;;;;6.20;5.20;;;;;;;-128.00;-1.00;-1.00;97818;296;1005328;-31
2023/07/09 03:41:19;;;;;;;6.30;5.70;;;;;;;-128.00;-1.00;-1.00;97817;285;1003020;-34
2023/07/09 03:43:46;;;;;;;6.70;5.90;;;;;;;-128.00;-1.00;-1.00;97790;296;1004356;-36
2023/07/09 03:46:11;;;;;;;7.70;6.80;;;;;;;-128.00;-1.00;-1.00;97804;297;1005688;-33
2023/07/09 03:48:37;;;;;;;7.60;5.60;;;;;;;-128.00;-1.00;-1.00;97919;296;1003008;-31
2023/07/09 03:51:03;;;;;;;6.90;4.50;;;;;;;-128.00;-1.00;-1.00;97747;285;1002883;-29
2023/07/09 03:53:28;;;;;;;7.50;6.10;;;;;;;-128.00;-1.00;-1.00;97764;285;1003455;-34
2023/07/09 03:55:55;;;;;;;8.00;6.20;;;;;;;-128.00;-1.00;-1.00;97778;285;1003160;-34
2023/07/09 03:58:20;;;;;;;8.20;6.80;;;;;;;-128.00;-1.00;-1.00;97756;285;1003185;-37
2023/07/09 04:00:46;;;;;;;9.70;5.30;;;;;;;-128.00;-1.00;-1.00;97855;296;1002991;-31
2023/07/09 04:03:12;;;;;;;5.50;4.60;;;;;;;-128.00;-1.00;-1.00;97936;296;1002582;-38
2023/07/09 04:05:38;;;;;;;6.30;5.70;;;;;;;-128.00;-1.00;-1.00;97892;285;1002973;-31
2023/07/09 04:08:04;;;;;;;6.90;5.20;;;;;;;-128.00;-1.00;-1.00;97771;296;1003575;-31
2023/07/09 04:10:30;;;;;;;18.80;5.50;;;;;;;-128.00;-1.00;-1.00;97835;296;1004376;-36
2023/07/09 04:12:56;;;;;;;8.80;5.80;;;;;;;-128.00;-1.00;-1.00;97814;297;1002880;-31
2023/07/09 04:15:21;;;;;;;4.90;3.80;;;;;;;-128.00;-1.00;-1.00;97904;285;1003231;-30
2023/07/09 04:17:48;;;;;;;6.20;5.40;;;;;;;-128.00;-1.00;-1.00;97817;285;1003020;-32
2023/07/09 04:20:13;;;;;;;4.90;4.20;;;;;;;-128.00;-1.00;-1.00;97967;296;1004254;-36
2023/07/09 04:22:39;;;;;;;9.40;5.40;;;;;;;-128.00;-1.00;-1.00;97781;285;1004372;-36
2023/07/09 04:25:06;;;;;;;4.90;4.40;;;;;;;-128.00;-1.00;-1.00;97972;285;1002579;-36
2023/07/09 04:27:33;;;;;;;7.90;4.60;;;;;;;-128.00;-1.00;-1.00;97921;296;1003376;-36
2023/07/09 04:29:59;;;;;;;5.20;3.70;;;;;;;-128.00;-1.00;-1.00;97877;285;1003419;-32
2023/07/09 04:32:25;;;;;;;10.90;4.60;;;;;;;-128.00;-1.00;-1.00;97819;296;1002591;-31
2023/07/09 04:34:50;;;;;;;8.20;4.50;;;;;;;-128.00;-1.00;-1.00;97824;296;1003244;-30
2023/07/09 04:37:19;;;;;;;8.00;5.60;;;;;;;-128.00;-1.00;-1.00;97784;296;1004193;-31
2023/07/09 04:39:45;;;;;;;8.60;5.40;;;;;;;-128.00;-1.00;-1.00;97855;285;1004024;-39
2023/07/09 04:42:12;;;;;;;6.10;5.10;;;;;;;-128.00;-1.00;-1.00;97787;285;1003147;-34
2023/07/09 04:44:37;;;;;;;5.50;4.50;;;;;;;-128.00;-1.00;-1.00;98056;296;1003093;-35
2023/07/09 04:47:03;;;;;;;7.80;5.90;;;;;;;-128.00;-1.00;-1.00;97861;296;1003142;-31
2023/07/09 04:49:29;;;;;;;4.60;4.20;;;;;;;-128.00;-1.00;-1.00;97906;285;1003796;-32
2023/07/09 04:51:56;;;;;;;8.90;4.40;;;;;;;-128.00;-1.00;-1.00;97906;285;1003162;-37
2023/07/09 04:54:23;;;;;;;7.60;4.00;;;;;;;-128.00;-1.00;-1.00;97885;296;1003704;-31
2023/07/09 04:56:49;;;;;;;5.90;4.80;;;;;;;-128.00;-1.00;-1.00;97825;285;1002639;-31
2023/07/09 04:59:14;;;;;;;5.60;4.70;;;;;;;-128.00;-1.00;-1.00;97843;285;1003646;-32
2023/07/09 05:01:40;;;;;;;7.30;4.80;;;;;;;-128.00;-1.00;-1.00;97791;296;1003432;-31
2023/07/09 05:04:06;;;;;;;5.90;4.70;;;;;;;-128.00;-1.00;-1.00;97787;296;1004356;-36
2023/07/09 05:06:33;;;;;;;5.10;4.60;;;;;;;-128.00;-1.00;-1.00;97950;296;1002963;-35
2023/07/09 05:08:58;;;;;;;4.50;3.90;;;;;;;-128.00;-1.00;-1.00;97874;296;1002790;-35
2023/07/09 05:11:24;;;;;;;4.30;3.70;;;;;;;-128.00;-1.00;-1.00;97857;296;1004270;-35
2023/07/09 05:13:49;;;;;;;8.80;4.70;;;;;;;-128.00;-1.00;-1.00;97954;296;1004119;-37
2023/07/09 05:16:15;;;;;;;6.70;3.60;;;;;;;-128.00;-1.00;-1.00;97813;297;1003402;-36
2023/07/09 05:18:40;;;;;;;4.10;3.70;;;;;;;-128.00;-1.00;-1.00;97939;285;1002915;-36
2023/07/09 05:21:06;;;;;;;4.80;4.10;;;;;;;-128.00;-1.00;-1.00;97780;296;1003849;-35
2023/07/09 05:23:31;;;;;;;6.20;4.80;;;;;;;-128.00;-1.00;-1.00;97815;285;1003794;-36
2023/07/09 05:25:58;;;;;;;5.10;4.40;;;;;;;-128.00;-1.00;-1.00;97788;296;1004423;-35
2023/07/09 05:28:24;;;;;;;16.80;4.70;;;;;;;-128.00;-1.00;-1.00;98038;285;1005109;-35
2023/07/09 05:30:49;;;;;;;4.90;4.30;;;;;;;-128.00;-1.00;-1.00;97862;285;1003453;-33
2023/07/09 05:33:16;;;;;;;4.00;3.70;;;;;;;-128.00;-1.00;-1.00;97836;285;1003650;-38
2023/07/09 05:35:42;;;;;;;5.10;3.60;;;;;;;-128.00;-1.00;-1.00;97814;296;1002990;-36
2023/07/09 05:38:08;;;;;;;4.00;3.50;;;;;;;-128.00;-1.00;-1.00;97971;285;1003017;-33
2023/07/09 05:40:34;;;;;;;4.10;3.60;;;;;;;-128.00;-1.00;-1.00;98007;285;1003052;-36
2023/07/09 05:42:59;;;;;;;4.30;3.40;;;;;;;-128.00;-1.00;-1.00;97803;285;1003436;-37
2023/07/09 05:45:25;;;;;;;4.00;3.30;;;;;;;-128.00;-1.00;-1.00;97796;296;1003281;-33
2023/07/09 05:47:50;;;;;;;3.60;3.10;;;;;;;-128.00;-1.00;-1.00;97878;285;1004455;-40
2023/07/09 05:50:16;;;;;;;4.60;4.00;;;;;;;-128.00;-1.00;-1.00;97871;296;1003804;-37
2023/07/09 05:52:42;;;;;;;9.90;3.10;;;;;;;-128.00;-1.00;-1.00;97806;285;1004147;-32
2023/07/09 05:55:08;;;;;;;2.90;2.60;;;;;;;-128.00;-1.00;-1.00;97820;285;1003206;-32
2023/07/09 05:57:33;;;;;;;11.30;3.60;;;;;;;-128.00;-1.00;-1.00;97803;296;1003371;-30
2023/07/09 05:59:59;;;;;;;4.70;3.90;;;;;;;-128.00;-1.00;-1.00;97788;285;1003472;-35
2023/07/09 06:02:24;;;;;;;4.60;3.50;;;;;;;-128.00;-1.00;-1.00;97829;285;1003467;-33
2023/07/09 06:04:50;;;;;;;4.10;3.70;;;;;;;-128.00;-1.00;-1.00;97899;296;1003683;-41
2023/07/09 06:07:18;;;;;;;2.20;2.10;;;;;;;-128.00;-1.00;-1.00;97976;285;1002986;-31
2023/07/09 06:09:45;;;;;;;3.20;3.00;;;;;;;-128.00;-1.00;-1.00;97820;285;1003474;-33
2023/07/09 06:12:11;;;;;;;2.40;2.30;;;;;;;-128.00;-1.00;-1.00;97796;285;1003062;-37
2023/07/09 06:14:37;;;;;;;5.50;2.90;;;;;;;-128.00;-1.00;-1.00;97839;285;1003347;-34
2023/07/09 06:17:03;;;;;;;4.50;3.40;;;;;;;-128.00;-1.00;-1.00;97887;285;1004061;-32
2023/07/09 06:19:29;;;;;;;3.40;3.00;;;;;;;-128.00;-1.00;-1.00;97823;285;1003169;-35
2023/07/09 06:21:55;;;;;;;2.80;2.50;;;;;;;-128.00;-1.00;-1.00;97848;285;1003562;-31
2023/07/09 06:24:21;;;;;;;3.00;2.30;;;;;;;-128.00;-1.00;-1.00;97836;296;1004090;-38
2023/07/09 06:26:47;;;;;;;2.70;2.00;;;;;;;-128.00;-1.00;-1.00;97823;296;1002958;-33
2023/07/09 06:29:13;;;;;;;2.60;2.30;;;;;;;-128.00;-1.00;-1.00;97898;285;1004189;-32
2023/07/09 06:31:40;;;;;;;4.30;2.60;;;;;;;-128.00;-1.00;-1.00;97958;296;1003151;-33
2023/07/09 06:34:09;;;;;;;3.60;2.90;;;;;;;-128.00;-1.00;-1.00;97887;285;1003181;-34
2023/07/09 06:36:35;;;;;;;4.80;2.90;;;;;;;-128.00;-1.00;-1.00;97846;285;1004297;-36
2023/07/09 06:39:01;;;;;;;3.20;2.10;;;;;;;-128.00;-1.00;-1.00;97909;296;1004841;-35
2023/07/09 06:41:27;;;;;;;3.50;2.30;;;;;;;-128.00;-1.00;-1.00;97846;285;1003278;-32
2023/07/09 06:43:53;;;;;;;3.00;2.70;;;;;;;-128.00;-1.00;-1.00;97853;285;1003014;-31
2023/07/09 06:46:18;;;;;;;2.50;2.30;;;;;;;-128.00;-1.00;-1.00;97790;285;1003260;-36
2023/07/09 06:48:44;;;;;;;2.90;2.00;;;;;;;-128.00;-1.00;-1.00;97991;296;1003463;-35
2023/07/09 06:51:10;;;;;;;2.00;1.60;;;;;;;-128.00;-1.00;-1.00;97739;296;1003486;-36
2023/07/09 06:53:36;;;;;;;2.40;1.80;;;;;;;-128.00;-1.00;-1.00;97854;285;1003089;-36
2023/07/09 06:56:02;;;;;;;3.70;1.90;;;;;;;-128.00;-1.00;-1.00;97855;285;1003613;-36
2023/07/09 06:58:31;;;;;;;3.10;2.20;;;;;;;-128.00;-1.00;-1.00;97887;285;1003848;-32
2023/07/09 07:00:57;;;;;;;2.30;2.10;;;;;;;-128.00;-1.00;-1.00;97912;297;1003432;-33
2023/07/09 07:03:23;;;;;;;2.60;2.10;;;;;;;-128.00;-1.00;-1.00;97847;296;1003054;-36
2023/07/09 07:05:49;;;;;;;8.10;2.00;;;;;;;-128.00;-1.00;-1.00;97817;285;1003720;-33
2023/07/09 07:08:17;;;;;;;2.30;2.00;;;;;;;-128.00;-1.00;-1.00;97756;285;1002910;-34
2023/07/09 07:10:43;;;;;;;2.70;2.40;;;;;;;-128.00;-1.00;-1.00;97894;285;1002676;-31
2023/07/09 07:13:09;;;;;;;2.40;2.00;;;;;;;-128.00;-1.00;-1.00;97913;296;1003530;-35
2023/07/09 07:15:37;;;;;;;3.50;2.90;;;;;;;-128.00;-1.00;-1.00;97884;285;1004260;-31
2023/07/09 07:18:03;;;;;;;3.10;2.00;;;;;;;-128.00;-1.00;-1.00;97865;285;1002736;-36
2023/07/09 07:20:29;;;;;;;2.70;2.40;;;;;;;-128.00;-1.00;-1.00;98066;296;1004757;-32
2023/07/09 07:22:56;;;;;;;2.90;2.10;;;;;;;-128.00;-1.00;-1.00;97841;285;1002345;-31
2023/07/09 07:25:21;;;;;;;2.60;2.10;;;;;;;-128.00;-1.00;-1.00;97852;285;1003180;-33
2023/07/09 07:27:47;;;;;;;2.80;2.50;;;;;;;-128.00;-1.00;-1.00;97973;296;1003573;-30
2023/07/09 07:30:13;;;;;;;1.70;1.30;;;;;;;-128.00;-1.00;-1.00;97934;285;1003765;-32
2023/07/09 07:32:43;;;;;;;2.90;2.60;;;;;;;-128.00;-1.00;-1.00;97951;285;1004344;-31
2023/07/09 07:35:09;;;;;;;2.70;2.00;;;;;;;-128.00;-1.00;-1.00;97783;285;1003067;-31
2023/07/09 07:37:34;;;;;;;3.00;1.60;;;;;;;-128.00;-1.00;-1.00;97818;296;1005535;-31
2023/07/09 07:40:00;;;;;;;7.80;2.10;;;;;;;-128.00;-1.00;-1.00;97089;296;1005596;-35
2023/07/09 07:42:26;;;;;;;2.90;1.90;;;;;;;-128.00;-1.00;-1.00;97650;296;1004624;-32
2023/07/09 07:44:52;;;;;;;12.30;2.10;;;;;;;-128.00;-1.00;-1.00;97673;296;1003918;-33
2023/07/09 07:47:18;;;;;;;1.80;1.40;;;;;;;-128.00;-1.00;-1.00;97629;296;1005712;-34
2023/07/09 07:49:43;;;;;;;1.70;1.40;;;;;;;-128.00;-1.00;-1.00;97625;297;1005569;-35
2023/07/09 07:52:10;;;;;;;2.90;1.80;;;;;;;-128.00;-1.00;-1.00;97602;285;1005034;-31
2023/07/09 07:54:35;;;;;;;4.80;1.60;;;;;;;-128.00;-1.00;-1.00;97715;296;1005893;-34
2023/07/09 07:57:01;;;;;;;2.40;1.90;;;;;;;-128.00;-1.00;-1.00;97603;296;1005062;-34
2023/07/09 07:59:27;;;;;;;2.00;1.80;;;;;;;-128.00;-1.00;-1.00;97650;285;1005615;-32
2023/07/09 08:01:53;;;;;;;1.60;1.40;;;;;;;-128.00;-1.00;-1.00;97132;297;1004295;-36
2023/07/09 08:04:19;;;;;;;2.40;1.30;;;;;;;-128.00;-1.00;-1.00;97849;296;1004097;-36
2023/07/09 08:06:44;;;;;;;3.30;2.30;;;;;;;-128.00;-1.00;-1.00;97809;284;1003583;-32
2023/07/09 08:09:10;;;;;;;2.30;1.70;;;;;;;-128.00;-1.00;-1.00;97836;285;1003392;-40
2023/07/09 08:11:35;;;;;;;2.20;1.40;;;;;;;-128.00;-1.00;-1.00;97097;297;1002910;-30
2023/07/09 08:14:01;;;;;;;2.40;1.90;;;;;;;-128.00;-1.00;-1.00;97831;296;1002673;-31
2023/07/09 08:16:27;;;;;;;2.00;1.60;;;;;;;-128.00;-1.00;-1.00;97790;296;1002640;-35
2023/07/09 08:18:52;;;;;;;1.80;1.50;;;;;;;-128.00;-1.00;-1.00;97965;296;1003702;-32
2023/07/09 08:21:18;;;;;;;1.70;1.50;;;;;;;-128.00;-1.00;-1.00;97860;297;1003330;-37
2023/07/09 08:23:44;;;;;;;1.50;1.30;;;;;;;-128.00;-1.00;-1.00;97809;285;1003228;-34
2023/07/09 08:26:10;;;;;;;1.90;1.70;;;;;;;-128.00;-1.00;-1.00;97812;296;1005262;-36
2023/07/09 08:28:37;;;;;;;2.40;1.70;;;;;;;-128.00;-1.00;-1.00;97756;296;1005081;-33
2023/07/09 08:31:02;;;;;;;2.10;1.90;;;;;;;-128.00;-1.00;-1.00;97866;296;1003615;-34
2023/07/09 08:33:28;;;;;;;2.70;1.80;;;;;;;-128.00;-1.00;-1.00;97930;289;1002491;-35
2023/07/09 08:35:54;;;;;;;3.30;2.30;;;;;;;-128.00;-1.00;-1.00;97803;297;1003379;-36
2023/07/09 08:38:21;;;;;;;2.70;2.30;;;;;;;-128.00;-1.00;-1.00;97858;285;1002967;-31
2023/07/09 08:40:56;;;;;;;2.60;2.30;;;;;;;-128.00;-1.00;-1.00;97950;285;1004096;-37
2023/07/09 08:43:36;;;;;;;2.20;2.00;;;;;;;-128.00;-1.00;-1.00;97868;296;1004825;-33
2023/07/09 08:46:25;;;;;;;3.40;2.40;;;;;;;-128.00;-1.00;-1.00;97861;285;1004137;-35
2023/07/09 08:48:51;;;;;;;2.90;2.00;;;;;;;-128.00;-1.00;-1.00;97831;296;1002781;-38
2023/07/09 08:51:24;;;;;;;1.90;1.40;;;;;;;-128.00;-1.00;-1.00;97917;285;1002808;-34
2023/07/09 08:53:53;;;;;;;5.30;1.50;;;;;;;-128.00;-1.00;-1.00;98000;285;1002840;-36
2023/07/09 08:56:19;;;;;;;2.30;1.50;;;;;;;-128.00;-1.00;-1.00;97909;285;1003160;-31
2023/07/09 08:58:45;;;;;;;2.00;1.50;;;;;;;-128.00;-1.00;-1.00;97936;297;1003770;-36
2023/07/09 09:01:17;;;;;;;2.00;1.30;;;;;;;-128.00;-1.00;-1.00;97873;296;1004268;-36
2023/07/09 09:03:46;;;;;;;4.30;2.10;;;;;;;-128.00;-1.00;-1.00;97949;296;1002526;-32
2023/07/09 09:06:16;;;;;;;1.60;1.50;;;;;;;-128.00;-1.00;-1.00;97880;285;1002858;-35
2023/07/09 09:09:14;;;;;;;3.90;2.20;;;;;;;-128.00;-1.00;-1.00;97911;285;1002824;-36
2023/07/09 09:11:55;;;;;;;5.90;2.90;;;;;;;-128.00;-1.00;-1.00;97919;296;1002859;-34
2023/07/09 09:14:34;;;;;;;1.50;1.10;;;;;;;-128.00;-1.00;-1.00;97916;296;1002884;-35
2023/07/09 09:16:59;;;;;;;4.00;1.70;;;;;;;-128.00;-1.00;-1.00;98024;296;1003857;-35
2023/07/09 09:19:28;;;;;;;4.30;1.80;;;;;;;-128.00;-1.00;-1.00;97779;296;1003092;-32
2023/07/09 09:21:58;;;;;;;2.10;1.40;;;;;;;-128.00;-1.00;-1.00;97793;285;1002560;-33
2023/07/09 09:24:31;;;;;;;0.90;0.90;;;;;;;-128.00;-1.00;-1.00;97982;296;1005201;-35
2023/07/09 09:26:57;;;;;;;5.30;1.50;;;;;;;-128.00;-1.00;-1.00;97877;285;1002711;-35
2023/07/09 09:29:24;;;;;;;1.80;1.50;;;;;;;-128.00;-1.00;-1.00;97827;296;1002086;-32
2023/07/09 09:31:52;;;;;;;2.00;1.80;;;;;;;-128.00;-1.00;-1.00;97994;296;1002990;-31
2023/07/09 09:34:19;;;;;;;1.50;1.30;;;;;;;-128.00;-1.00;-1.00;97937;296;1003995;-32
2023/07/09 09:36:45;;;;;;;2.20;1.00;;;;;;;-128.00;-1.00;-1.00;97837;297;1002533;-32
2023/07/09 09:39:10;;;;;;;3.60;2.10;;;;;;;-128.00;-1.00;-1.00;97871;285;1004701;-32
2023/07/09 09:41:37;;;;;;;2.00;1.50;;;;;;;-128.00;-1.00;-1.00;97867;285;1003515;-32
2023/07/09 09:44:04;;;;;;;1.90;1.40;;;;;;;-128.00;-1.00;-1.00;97942;285;1003005;-31
2023/07/09 09:46:31;;;;;;;2.20;1.80;;;;;;;-128.00;-1.00;-1.00;97810;297;1002512;-35
2023/07/09 09:48:59;;;;;;;1.20;1.20;;;;;;;-128.00;-1.00;-1.00;97845;285;1002791;-36
2023/07/09 09:51:26;;;;;;;3.80;1.50;;;;;;;-128.00;-1.00;-1.00;97932;296;1002836;-32
2023/07/09 09:53:58;;;;;;;2.00;1.50;;;;;;;-128.00;-1.00;-1.00;97933;285;1004710;-35
2023/07/09 09:56:26;;;;;;;;;;;;;;;-128.00;-1.00;-1.00;97942;296;1002449;-32
2023/07/09 09:58:54;;;;;;;2.10;1.30;;;;;;;-128.00;-1.00;-1.00;97992;296;1003009;-37
2023/07/09 10:01:22;;;;;;;1.50;1.30;;;;;;;-128.00;-1.00;-1.00;97937;285;1002772;-37
2023/07/09 10:03:52;;;;;;;1.40;1.10;;;;;;;-128.00;-1.00;-1.00;97855;285;1002915;-35
2023/07/09 10:06:21;;;;;;;3.50;1.40;;;;;;;-128.00;-1.00;-1.00;97916;285;1003508;-31
2023/07/09 10:08:56;;;;;;;2.00;1.20;;;;;;;-128.00;-1.00;-1.00;97893;296;1002950;-39
2023/07/09 10:11:46;;;;;;;1.90;1.60;;;;;;;-128.00;-1.00;-1.00;98070;296;1002523;-32
2023/07/09 10:14:26;;;;;;;3.40;1.70;;;;;;;-128.00;-1.00;-1.00;97821;296;1002447;-33
2023/07/09 10:16:56;;;;;;;1.50;1.20;;;;;;;-128.00;-1.00;-1.00;98066;285;1002694;-33
2023/07/09 10:19:25;;;;;;;1.80;1.50;;;;;;;-128.00;-1.00;-1.00;97875;296;1003315;-32
2023/07/09 10:22:00;;;;;;;1.70;1.50;;;;;;;-128.00;-1.00;-1.00;97918;296;1003484;-36
2023/07/09 10:24:42;;;;;;;2.20;1.60;;;;;;;-128.00;-1.00;-1.00;97904;296;1002588;-36
2023/07/09 10:27:16;;;;;;;;;;;;;;;-128.00;-1.00;-1.00;97903;296;1004278;-31
2023/07/09 10:30:02;;;;;;;2.90;1.50;;;;;;;-128.00;-1.00;-1.00;97789;298;1002350;-36
2023/07/09 10:32:42;;;;;;;1.90;1.70;;;;;;;-128.00;-1.00;-1.00;97898;285;1003978;-38
2023/07/09 10:35:27;;;;;;;2.10;1.80;;;;;;;-128.00;-1.00;-1.00;97941;298;1003017;-38
2023/07/09 10:38:07;;;;;;;1.80;1.60;;;;;;;-128.00;-1.00;-1.00;97917;285;1002461;-32
2023/07/09 10:40:50;;;;;;;3.00;2.60;;;;;;;-128.00;-1.00;-1.00;97968;296;1002882;-32
2023/07/09 10:43:19;;;;;;;2.80;2.20;;;;;;;-128.00;-1.00;-1.00;97817;285;1003913;-35
2023/07/09 10:45:47;;;;;;;2.30;2.00;;;;;;;-128.00;-1.00;-1.00;98019;296;1002952;-36
2023/07/09 10:48:18;;;;;;;5.10;3.40;;;;;;;-128.00;-1.00;-1.00;97866;296;1003777;-35
2023/07/09 10:50:47;;;;;;;2.30;1.90;;;;;;;-128.00;-1.00;-1.00;97816;296;1003989;-31
2023/07/09 10:53:16;;;;;;;4.10;3.40;;;;;;;-128.00;-1.00;-1.00;97880;296;1002497;-37
2023/07/09 10:55:56;;;;;;;3.60;3.30;;;;;;;-128.00;-1.00;-1.00;97869;296;1004125;-36
2023/07/09 10:58:47;;;;;;;3.80;3.30;;;;;;;-128.00;-1.00;-1.00;97931;296;1003032;-32
2023/07/09 11:01:14;;;;;;;3.30;2.50;;;;;;;-128.00;-1.00;-1.00;97913;296;1003531;-32
2023/07/09 11:03:49;;;;;;;4.20;2.60;;;;;;;-128.00;-1.00;-1.00;97823;284;1003151;-32
2023/07/09 11:06:20;;;;;;;6.00;3.00;;;;;;;-128.00;-1.00;-1.00;97854;296;1003528;-31
2023/07/09 11:08:47;;;;;;;2.60;2.10;;;;;;;-128.00;-1.00;-1.00;97994;296;1003520;-30
2023/07/09 11:11:22;;;;;;;2.90;2.30;;;;;;;-128.00;-1.00;-1.00;98052;285;1004648;-36
2023/07/09 11:13:52;;;;;;;2.30;1.90;;;;;;;-128.00;-1.00;-1.00;97884;285;1003005;-35
2023/07/09 11:16:24;;;;;;;2.90;2.00;;;;;;;-128.00;-1.00;-1.00;97856;296;1002178;-33
2023/07/09 11:19:01;;;;;;;2.50;2.20;;;;;;;-128.00;-1.00;-1.00;97992;285;1004375;-36
2023/07/09 11:21:27;;;;;;;2.10;1.90;;;;;;;-128.00;-1.00;-1.00;97964;296;1002977;-32
2023/07/09 11:23:54;;;;;;;1.90;1.60;;;;;;;-128.00;-1.00;-1.00;98045;285;1002831;-32
2023/07/09 11:26:28;;;;;;;2.50;2.10;;;;;;;-128.00;-1.00;-1.00;97970;296;1002808;-31
2023/07/09 11:29:05;;;;;;;3.20;2.90;;;;;;;-128.00;-1.00;-1.00;97809;296;1003302;-36
2023/07/09 11:31:37;;;;;;;3.80;1.40;;;;;;;-128.00;-1.00;-1.00;97950;289;1002045;-36
2023/07/09 11:34:08;;;;;;;3.40;3.10;;;;;;;-128.00;-1.00;-1.00;97876;285;1003570;-36
2023/07/09 11:36:35;;;;;;;3.40;3.10;;;;;;;-128.00;-1.00;-1.00;97897;285;1003802;-36
2023/07/09 11:39:00;;;;;;;2.50;2.10;;;;;;;-128.00;-1.00;-1.00;98005;296;1002592;-35
2023/07/09 11:41:41;;;;;;;3.70;2.90;;;;;;;-128.00;-1.00;-1.00;98037;296;1002979;-32
2023/07/09 11:44:23;;;;;;;3.30;2.60;;;;;;;-128.00;-1.00;-1.00;98026;296;1003856;-36
2023/07/09 11:47:21;;;;;;;3.70;2.80;;;;;;;-128.00;-1.00;-1.00;97834;285;1004427;-35
2023/07/09 11:50:05;;;;;;;2.40;2.10;;;;;;;-128.00;-1.00;-1.00;97954;285;1003329;-31
2023/07/09 11:52:40;;;;;;;2.20;2.00;;;;;;;-128.00;-1.00;-1.00;97980;296;1002553;-31
2023/07/09 11:55:13;;;;;;;3.60;1.80;;;;;;;-128.00;-1.00;-1.00;97891;296;1002776;-34
2023/07/09 11:57:38;;;;;;;1.90;1.40;;;;;;;-128.00;-1.00;-1.00;97985;285;1002817;-36
2023/07/09 12:00:05;;;;;;;1.70;1.40;;;;;;;-128.00;-1.00;-1.00;97871;285;1003972;-32
2023/07/09 12:02:33;;;;;;;1.40;1.10;;;;;;;-128.00;-1.00;-1.00;97903;296;1003299;-36
2023/07/09 12:04:58;;;;;;;3.60;1.40;;;;;;;-128.00;-1.00;-1.00;97833;298;1002700;-33
2023/07/09 12:07:25;;;;;;;2.00;1.60;;;;;;;-128.00;-1.00;-1.00;97928;296;1002931;-37
2023/07/09 12:09:50;;;;;;;1.40;1.00;;;;;;;-128.00;-1.00;-1.00;98065;285;1004220;-32
2023/07/09 12:12:19;;;;;;;1.60;1.10;;;;;;;-128.00;-1.00;-1.00;97866;285;1005126;-36
2023/07/09 12:14:45;;;;;;;1.50;0.90;;;;;;;-128.00;-1.00;-1.00;97903;285;1003542;-32
2023/07/09 12:17:11;;;;;;;2.30;1.50;;;;;;;-128.00;-1.00;-1.00;97901;285;1003066;-32
2023/07/09 12:19:37;;;;;;;1.30;1.20;;;;;;;-128.00;-1.00;-1.00;97857;285;1003007;-37
2023/07/09 12:22:06;;;;;;;2.50;1.20;;;;;;;-128.00;-1.00;-1.00;97941;285;1003348;-36
2023/07/09 12:24:36;;;;;;;1.40;1.30;;;;;;;-128.00;-1.00;-1.00;97858;285;1002882;-35